Terminal Aerodrome Forecast
Issued by NWS

Home | Current Version | Previous Version | Text Only | Print | Product List | Glossary On
Versions: 1 2 3 4 5 6 7 8 9 10 11 12 13 14 15 16 17 18 19 20 21 22 23 24 25 26
454
FTUS43 KGRB 151730
TAFMTW
TAF
KMTW 151730Z 1518/1618 29011G18KT P6SM BKN025
      TEMPO 1520/1522 SCT025 BKN040
     FM152200 28006KT P6SM SCT025 BKN090
     FM160500 VRB03KT P6SM OVC040
     FM160900 02005KT 4SM -SN OVC025
      TEMPO 1610/1614 2SM -SN OVC015
     FM161600 08009KT 6SM -SN OVC020=

USA.gov is the U.S. government's official web portal to all federal, state and local government web resources and services.